createdAt,value
2023-04-11T00:00:15.892Z,12.70
2023-04-11T00:02:40.353Z,13.75
2023-04-11T00:05:06.173Z,12.70
2023-04-11T00:07:29.807Z,13.35
2023-04-11T00:09:53.395Z,12.60
2023-04-11T00:12:17.007Z,12.43
2023-04-11T00:14:45.512Z,14.55
2023-04-11T00:17:09.611Z,13.38
2023-04-11T00:19:33.494Z,13.52
2023-04-11T00:21:58.760Z,15.10
2023-04-11T00:24:22.328Z,13.82
2023-04-11T00:26:46.043Z,12.60
2023-04-11T00:29:10.111Z,13.30
2023-04-11T00:31:34.042Z,14.48
2023-04-11T00:33:57.882Z,11.98
2023-04-11T00:36:21.978Z,14.93
2023-04-11T00:38:47.227Z,15.32
2023-04-11T00:41:10.949Z,13.93
2023-04-11T00:43:34.611Z,14.20
2023-04-11T00:45:58.436Z,13.00
2023-04-11T00:48:21.999Z,15.13
2023-04-11T00:50:46.083Z,12.80
2023-04-11T00:53:11.105Z,14.70
2023-04-11T00:55:36.240Z,14.02
2023-04-11T00:57:59.986Z,12.52
2023-04-11T01:00:24.189Z,12.93
2023-04-11T01:02:47.823Z,15.52
2023-04-11T01:05:12.610Z,14.45
2023-04-11T01:07:38.270Z,14.02
2023-04-11T01:10:02.837Z,15.02
2023-04-11T01:12:28.365Z,13.55
2023-04-11T01:14:52.379Z,14.55
2023-04-11T01:17:16.912Z,11.13
2023-04-11T01:19:40.609Z,14.15
2023-04-11T01:22:05.085Z,14.05
2023-04-11T01:24:30.836Z,12.90
2023-04-11T01:26:54.455Z,15.70
2023-04-11T01:29:18.110Z,15.15
2023-04-11T01:31:41.995Z,15.15
2023-04-11T01:34:06.288Z,15.15
2023-04-11T01:36:31.644Z,16.13
2023-04-11T01:38:56.167Z,13.95
2023-04-11T01:41:22.640Z,14.82
2023-04-11T01:43:46.507Z,13.77
2023-04-11T01:46:11.566Z,12.95
2023-04-11T01:48:35.914Z,14.02
2023-04-11T01:50:59.543Z,14.52
2023-04-11T01:53:23.192Z,13.23
2023-04-11T01:55:47.773Z,13.13
2023-04-11T01:58:12.748Z,13.32
2023-04-11T02:00:37.083Z,14.15
2023-04-11T02:03:00.841Z,15.18
2023-04-11T02:05:26.314Z,15.45
2023-04-11T02:07:52.520Z,14.43
2023-04-11T02:10:16.132Z,16.20
2023-04-11T02:12:39.735Z,13.57
2023-04-11T02:15:05.152Z,13.70
2023-04-11T02:17:31.316Z,12.05
2023-04-11T02:19:54.948Z,13.35
2023-04-11T02:22:18.653Z,12.25
2023-04-11T02:24:43.527Z,12.85
2023-04-11T02:27:07.598Z,13.80
2023-04-11T02:29:31.472Z,12.73
2023-04-11T02:31:57.057Z,14.60
2023-04-11T02:34:20.759Z,14.18
2023-04-11T02:36:45.856Z,12.07
2023-04-11T02:39:09.414Z,15.77
2023-04-11T02:41:32.995Z,12.57
2023-04-11T02:43:57.352Z,12.52
2023-04-11T02:46:21.040Z,11.27
2023-04-11T02:48:46.108Z,11.95
2023-04-11T02:51:10.545Z,12.82
2023-04-11T02:53:34.204Z,12.15
2023-04-11T02:55:57.818Z,13.05
2023-04-11T02:58:21.446Z,13.13
2023-04-11T03:00:45.773Z,13.27
2023-04-11T03:03:09.468Z,14.20
2023-04-11T03:05:39.230Z,11.45
2023-04-11T03:08:02.984Z,11.20
2023-04-11T03:10:28.389Z,13.35
2023-04-11T03:12:52.865Z,12.38
2023-04-11T03:15:17.727Z,12.82
2023-04-11T03:17:41.595Z,12.68
2023-04-11T03:20:11.821Z,11.98
2023-04-11T03:22:37.056Z,12.57
2023-04-11T03:25:00.709Z,13.35
2023-04-11T03:27:24.539Z,15.60
2023-04-11T03:29:53.650Z,15.43
2023-04-11T03:32:26.560Z,12.52
2023-04-11T03:34:51.622Z,12.90
2023-04-11T03:37:15.207Z,15.75
2023-04-11T03:39:40.615Z,12.93
2023-04-11T03:42:04.341Z,12.40
2023-04-11T03:44:29.233Z,13.38
2023-04-11T03:46:53.386Z,13.70
2023-04-11T03:49:17.300Z,12.93
2023-04-11T03:51:45.384Z,13.18
2023-04-11T03:54:09.758Z,13.15
2023-04-11T03:56:37.842Z,14.07
2023-04-11T03:59:03.085Z,14.82
2023-04-11T04:01:38.054Z,14.68
2023-04-11T04:04:03.187Z,13.68
2023-04-11T04:06:28.592Z,13.27
2023-04-11T04:08:54.563Z,13.18
2023-04-11T04:11:18.334Z,13.25
2023-04-11T04:13:44.548Z,13.38
2023-04-11T04:16:11.739Z,11.80
2023-04-11T04:18:38.271Z,13.13
2023-04-11T04:21:02.342Z,15.07
2023-04-11T04:23:27.791Z,12.95
2023-04-11T04:26:17.196Z,14.85
2023-04-11T04:28:50.799Z,16.27
2023-04-11T04:31:25.597Z,12.60
2023-04-11T04:33:58.743Z,14.57
2023-04-11T04:36:25.010Z,12.23
2023-04-11T04:38:48.923Z,16.02
2023-04-11T04:41:15.682Z,17.85
2023-04-11T04:43:45.939Z,15.25
2023-04-11T04:46:15.825Z,15.65
2023-04-11T04:48:44.706Z,13.73
2023-04-11T04:51:09.275Z,14.27
2023-04-11T04:53:34.815Z,15.57
2023-04-11T04:55:58.634Z,16.20
2023-04-11T04:58:24.393Z,17.13
2023-04-11T05:00:49.484Z,15.98
2023-04-11T05:03:20.926Z,17.35
2023-04-11T05:05:46.065Z,16.80
2023-04-11T05:08:10.265Z,15.85
2023-04-11T05:10:35.239Z,18.25
2023-04-11T05:12:58.846Z,16.65
2023-04-11T05:15:23.482Z,17.05
2023-04-11T05:17:47.201Z,17.20
2023-04-11T05:20:15.537Z,17.77
2023-04-11T05:22:42.331Z,17.52
2023-04-11T05:25:08.856Z,18.17
2023-04-11T05:27:34.590Z,20.17
2023-04-11T05:29:58.368Z,18.63
2023-04-11T05:32:22.253Z,22.65
2023-04-11T05:34:56.545Z,20.27
2023-04-11T05:37:37.749Z,20.70
2023-04-11T05:40:01.312Z,17.95
2023-04-11T05:42:24.920Z,21.27
2023-04-11T05:44:48.518Z,20.23
2023-04-11T05:47:12.652Z,18.60
2023-04-11T05:49:36.329Z,18.30
2023-04-11T05:51:59.887Z,20.65
2023-04-11T05:54:35.667Z,22.23
2023-04-11T05:56:59.407Z,20.83
2023-04-11T05:59:27.015Z,21.15
2023-04-11T06:01:52.525Z,19.30
2023-04-11T06:04:16.172Z,23.75
2023-04-11T06:06:40.093Z,20.42
2023-04-11T06:09:05.131Z,18.92
2023-04-11T06:11:30.971Z,21.17
2023-04-11T06:13:54.723Z,19.33
2023-04-11T06:16:19.964Z,21.08
2023-04-11T06:18:43.500Z,19.33
2023-04-11T06:21:07.529Z,20.20
2023-04-11T06:23:31.186Z,21.63
2023-04-11T06:25:54.789Z,22.70
2023-04-11T06:28:19.679Z,20.35
2023-04-11T06:30:43.536Z,18.98
2023-04-11T06:33:07.103Z,19.40
2023-04-11T06:35:30.969Z,17.08
2023-04-11T06:37:54.574Z,20.70
2023-04-11T06:40:20.038Z,19.38
2023-04-11T06:42:44.098Z,20.83
2023-04-11T06:45:11.964Z,21.08
2023-04-11T06:47:35.618Z,19.25
2023-04-11T06:49:59.353Z,21.13
2023-04-11T06:52:23.077Z,20.92
2023-04-11T06:54:46.676Z,19.10
2023-04-11T06:57:10.786Z,20.73
2023-04-11T06:59:34.918Z,18.80
2023-04-11T07:02:00.403Z,19.75
2023-04-11T07:04:24.275Z,21.55
2023-04-11T07:06:48.007Z,19.20
2023-04-11T07:09:12.638Z,19.13
2023-04-11T07:11:36.429Z,21.85
2023-04-11T07:14:01.509Z,19.30
2023-04-11T07:16:25.624Z,20.75
2023-04-11T07:18:50.732Z,18.05
2023-04-11T07:21:14.744Z,19.42
2023-04-11T07:23:38.499Z,16.60
2023-04-11T07:26:02.074Z,19.40
2023-04-11T07:28:25.854Z,20.17
2023-04-11T07:30:49.541Z,15.98
2023-04-11T07:33:13.139Z,19.67
2023-04-11T07:35:38.091Z,18.65
2023-04-11T07:38:02.022Z,20.25
2023-04-11T07:40:25.881Z,16.45
2023-04-11T07:42:49.459Z,19.95
2023-04-11T07:45:13.255Z,18.58
2023-04-11T07:47:36.967Z,22.30
2023-04-11T07:50:00.652Z,18.98
2023-04-11T07:52:25.965Z,18.98
2023-04-11T07:54:49.498Z,14.77
2023-04-11T07:57:13.085Z,13.73
2023-04-11T07:59:36.755Z,14.27
2023-04-11T08:02:02.067Z,12.68
2023-04-11T08:04:25.900Z,12.43
2023-04-11T08:06:49.736Z,9.02
2023-04-11T08:09:14.651Z,10.27
2023-04-11T08:11:39.470Z,10.52
2023-04-11T08:14:03.328Z,12.18
2023-04-11T08:16:26.992Z,8.73
2023-04-11T08:18:50.527Z,11.50
2023-04-11T08:21:14.100Z,8.95
2023-04-11T08:23:39.658Z,10.35
2023-04-11T08:26:04.680Z,10.65
2023-04-11T08:28:28.571Z,6.25
2023-04-11T08:30:55.271Z,6.53
2023-04-11T08:33:18.817Z,7.38
2023-04-11T08:35:43.160Z,7.43
2023-04-11T08:38:06.788Z,8.93
2023-04-11T08:40:30.791Z,6.93
2023-04-11T08:43:00.893Z,7.15
2023-04-11T08:45:25.545Z,9.10
2023-04-11T08:47:49.879Z,6.78
2023-04-11T08:50:13.771Z,9.40
2023-04-11T08:52:39.852Z,6.18
2023-04-11T08:55:04.673Z,10.23
2023-04-11T08:57:31.526Z,7.63
2023-04-11T09:00:00.278Z,8.45
2023-04-11T09:02:24.245Z,6.32
2023-04-11T09:04:49.138Z,8.93
2023-04-11T09:07:12.732Z,10.68
2023-04-11T09:09:36.958Z,7.47
2023-04-11T09:12:01.195Z,5.10
2023-04-11T09:14:27.477Z,6.90
2023-04-11T09:16:59.708Z,8.93
2023-04-11T09:19:27.556Z,7.13
2023-04-11T09:21:51.316Z,8.82
2023-04-11T09:24:19.750Z,6.38
2023-04-11T09:26:43.332Z,6.03
2023-04-11T09:29:06.946Z,10.95
2023-04-11T09:31:42.394Z,7.03
2023-04-11T09:34:07.424Z,7.93
2023-04-11T09:36:31.059Z,10.40
2023-04-11T09:38:56.010Z,8.43
2023-04-11T09:41:32.345Z,7.82
2023-04-11T09:43:57.031Z,13.00
2023-04-11T09:46:22.036Z,9.63
2023-04-11T09:48:47.092Z,8.82
2023-04-11T09:51:15.959Z,8.65
2023-04-11T09:53:48.304Z,10.18
2023-04-11T09:56:12.512Z,10.13
2023-04-11T09:58:38.563Z,7.40
2023-04-11T10:01:02.604Z,15.32
2023-04-11T10:03:27.695Z,9.73
2023-04-11T10:05:56.446Z,10.95
2023-04-11T10:08:33.167Z,25.38
2023-04-11T10:10:57.226Z,8.45
2023-04-11T10:13:43.834Z,9.50
2023-04-11T10:16:09.764Z,10.07
2023-04-11T10:18:33.345Z,7.30
2023-04-11T10:20:57.126Z,6.30
2023-04-11T10:23:20.677Z,9.10
2023-04-11T10:25:55.385Z,5.53
2023-04-11T10:28:41.559Z,4.38
2023-04-11T10:31:10.265Z,8.88
2023-04-11T10:33:36.095Z,7.85
2023-04-11T10:36:03.521Z,6.15
2023-04-11T10:38:50.643Z,3.92
2023-04-11T10:41:28.572Z,4.28
2023-04-11T10:43:52.893Z,5.80
2023-04-11T10:46:21.707Z,5.93
2023-04-11T10:48:59.497Z,5.68
2023-04-11T10:51:28.130Z,6.78
2023-04-11T10:53:52.461Z,5.28
2023-04-11T10:56:16.156Z,3.05
2023-04-11T10:58:41.785Z,6.18
2023-04-11T11:01:36.908Z,5.78
2023-04-11T11:04:01.532Z,2.05
2023-04-11T11:06:26.647Z,5.50
2023-04-11T11:08:50.297Z,5.82
2023-04-11T11:11:15.068Z,2.83
2023-04-11T11:13:44.894Z,2.53
2023-04-11T11:16:10.010Z,2.85
2023-04-11T11:18:33.715Z,3.63
2023-04-11T11:20:57.629Z,2.95
2023-04-11T11:23:21.209Z,3.03
2023-04-11T11:25:54.937Z,2.25
2023-04-11T11:28:18.483Z,4.30
2023-04-11T11:30:54.863Z,2.63
2023-04-11T11:33:21.366Z,1.50
2023-04-11T11:35:47.554Z,2.95
2023-04-11T11:38:11.398Z,3.17
2023-04-11T11:40:35.008Z,2.58
2023-04-11T11:42:58.657Z,2.47
2023-04-11T11:47:54.060Z,2.55
2023-04-11T11:50:29.230Z,3.53
2023-04-11T11:52:52.883Z,5.65
2023-04-11T11:55:33.513Z,5.40
2023-04-11T11:58:02.477Z,7.45
2023-04-11T12:00:28.248Z,7.57
2023-04-11T12:02:56.179Z,4.78
2023-04-11T12:05:20.103Z,4.97
2023-04-11T12:07:45.372Z,5.05
2023-04-11T12:10:11.870Z,6.10
2023-04-11T12:12:37.497Z,7.15
2023-04-11T12:15:01.334Z,5.20
2023-04-11T12:17:24.964Z,4.70
2023-04-11T12:19:49.868Z,3.90
2023-04-11T12:22:13.631Z,6.63
2023-04-11T12:24:37.217Z,4.22
2023-04-11T12:27:07.022Z,6.32
2023-04-11T12:29:31.749Z,5.25
2023-04-11T12:31:55.247Z,3.13
2023-04-11T12:34:18.814Z,1.85
2023-04-11T12:36:43.720Z,2.55
2023-04-11T12:39:07.321Z,4.35
2023-04-11T12:41:32.610Z,4.53
2023-04-11T12:43:56.517Z,2.22
2023-04-11T12:46:20.279Z,5.43
2023-04-11T12:48:43.933Z,2.65
2023-04-11T12:51:08.050Z,2.88
2023-04-11T12:53:33.058Z,4.47
2023-04-11T12:55:56.609Z,2.65
2023-04-11T12:58:20.229Z,6.35
2023-04-11T13:00:43.758Z,4.65
2023-04-11T13:03:07.925Z,6.13
2023-04-11T13:05:31.552Z,2.35
2023-04-11T13:07:55.142Z,3.13
2023-04-11T13:10:20.059Z,3.05
2023-04-11T13:12:45.618Z,5.97
2023-04-11T13:15:10.813Z,3.35
2023-04-11T13:17:35.131Z,7.28
2023-04-11T13:19:58.722Z,8.40
2023-04-11T13:22:22.346Z,3.95
2023-04-11T13:24:45.889Z,6.60
2023-04-11T13:27:10.833Z,4.25
2023-04-11T13:29:34.372Z,4.03
2023-04-11T13:31:58.633Z,6.40
2023-04-11T13:34:22.211Z,5.60
2023-04-11T13:36:46.328Z,5.75
2023-04-11T13:39:09.946Z,9.98
2023-04-11T13:41:33.545Z,5.28
2023-04-11T13:43:58.434Z,4.30
2023-04-11T13:46:23.338Z,2.72
2023-04-11T13:48:47.053Z,3.33
2023-04-11T13:51:10.836Z,4.20
2023-04-11T13:53:34.368Z,5.68
2023-04-11T13:55:57.984Z,2.22
2023-04-11T13:58:21.757Z,1.88
2023-04-11T14:00:47.871Z,1.02
2023-04-11T14:03:11.448Z,1.80
2023-04-11T14:05:35.668Z,2.10
2023-04-11T14:07:59.216Z,1.33
2023-04-11T14:10:22.779Z,1.75
2023-04-11T14:12:46.410Z,2.00
2023-04-11T14:15:11.880Z,1.73
2023-04-11T14:17:36.823Z,2.45
2023-04-11T14:20:00.492Z,3.72
2023-04-11T14:22:24.065Z,2.95
2023-04-11T14:24:47.613Z,3.25
2023-04-11T14:27:11.246Z,6.18
2023-04-11T14:29:37.358Z,5.88
2023-04-11T14:32:01.205Z,2.05
2023-04-11T14:34:26.241Z,25.25
2023-04-11T14:36:49.796Z,5.70
2023-04-11T14:39:13.431Z,21.77
2023-04-11T14:41:37.057Z,13.40
2023-04-11T14:44:00.676Z,7.05
2023-04-11T14:46:24.218Z,5.03
2023-04-11T14:48:47.912Z,4.72
2023-04-11T14:51:12.883Z,7.10
2023-04-11T14:53:36.984Z,6.88
2023-04-11T14:56:00.540Z,16.30
2023-04-11T14:58:24.192Z,3.70
2023-04-11T15:00:47.829Z,10.43
2023-04-11T15:03:12.374Z,5.97
2023-04-11T15:05:36.631Z,5.82
2023-04-11T15:08:02.197Z,4.53
2023-04-11T15:10:26.800Z,4.93
2023-04-11T15:12:50.707Z,2.58
2023-04-11T15:15:14.794Z,3.55
2023-04-11T15:17:42.630Z,4.25
2023-04-11T15:20:08.448Z,3.60
2023-04-11T15:22:32.066Z,6.10
2023-04-11T15:24:56.978Z,5.57
2023-04-11T15:27:21.012Z,3.45
2023-04-11T15:29:44.745Z,9.20
2023-04-11T15:32:08.372Z,4.55
2023-04-11T15:34:32.120Z,8.20
2023-04-11T15:36:56.811Z,3.88
2023-04-11T15:39:20.293Z,4.50
2023-04-11T15:41:45.296Z,6.95
2023-04-11T15:44:08.943Z,5.15
2023-04-11T15:46:32.634Z,1.95
2023-04-11T15:48:56.228Z,57.33
2023-04-11T15:51:19.905Z,18.45
2023-04-11T15:53:43.535Z,6.07
2023-04-11T15:56:08.798Z,4.97
2023-04-11T15:58:34.040Z,2.72
2023-04-11T16:01:01.264Z,14.20
2023-04-11T16:03:31.588Z,4.00
2023-04-11T16:05:55.267Z,11.45
2023-04-11T16:08:18.867Z,8.95
2023-04-11T16:10:42.470Z,4.43
2023-04-11T16:13:05.999Z,4.88
2023-04-11T16:15:31.078Z,6.05
2023-04-11T16:17:54.633Z,16.52
2023-04-11T16:20:21.199Z,15.55
2023-04-11T16:22:45.382Z,7.70
2023-04-11T16:25:09.754Z,5.18
2023-04-11T16:27:33.274Z,2.28
2023-04-11T16:29:59.893Z,7.60
2023-04-11T16:32:24.942Z,7.30
2023-04-11T16:34:48.610Z,12.60
2023-04-11T16:37:12.136Z,12.98
2023-04-11T16:39:35.753Z,10.02
2023-04-11T16:41:59.244Z,10.50
2023-04-11T16:44:22.821Z,7.28
2023-04-11T16:46:46.347Z,6.90
2023-04-11T16:49:11.680Z,5.50
2023-04-11T16:51:36.439Z,4.95
2023-04-11T16:54:00.099Z,5.22
2023-04-11T16:56:24.234Z,7.35
2023-04-11T16:58:48.933Z,3.42
2023-04-11T17:01:13.248Z,19.25
2023-04-11T17:03:36.966Z,6.32
2023-04-11T17:06:02.093Z,6.28
2023-04-11T17:08:26.506Z,8.25
2023-04-11T17:10:50.060Z,3.97
2023-04-11T17:13:14.908Z,3.83
2023-04-11T17:15:38.467Z,5.13
2023-04-11T17:18:02.155Z,5.55
2023-04-11T17:20:26.092Z,8.00
2023-04-11T17:22:51.340Z,2.55
2023-04-11T17:25:14.921Z,3.78
2023-04-11T17:27:38.488Z,4.20
2023-04-11T17:30:02.281Z,2.40
2023-04-11T17:32:25.941Z,4.90
2023-04-11T17:34:49.697Z,5.88
2023-04-11T17:37:13.272Z,2.70
2023-04-11T17:39:38.179Z,2.70
2023-04-11T17:42:02.110Z,2.33
2023-04-11T17:44:25.801Z,5.47
2023-04-11T17:46:49.580Z,2.28
2023-04-11T17:49:13.167Z,4.10
2023-04-11T17:51:38.914Z,4.10
2023-04-11T17:54:06.661Z,3.55
2023-04-11T17:56:32.264Z,3.70
2023-04-11T17:58:56.086Z,2.80
2023-04-11T18:01:19.658Z,2.10
2023-04-11T18:03:44.474Z,4.20
2023-04-11T18:06:09.181Z,2.08
2023-04-11T18:08:48.923Z,8.02
2023-04-11T18:11:13.863Z,4.70
2023-04-11T18:13:38.768Z,4.28
2023-04-11T18:16:02.953Z,3.92
2023-04-11T18:18:26.617Z,5.35
2023-04-11T18:20:50.192Z,3.15
2023-04-11T18:23:13.761Z,6.50
2023-04-11T18:25:37.344Z,6.90
2023-04-11T18:28:00.839Z,7.65
2023-04-11T18:30:26.030Z,5.78
2023-04-11T18:32:51.858Z,3.22
2023-04-11T18:35:15.725Z,5.80
2023-04-11T18:37:41.384Z,6.35
2023-04-11T18:40:11.755Z,4.13
2023-04-11T18:42:35.597Z,3.97
2023-04-11T18:45:00.444Z,4.22
2023-04-11T18:47:25.851Z,9.15
2023-04-11T18:49:49.422Z,4.88
2023-04-11T18:52:14.025Z,3.45
2023-04-11T18:54:37.827Z,5.35
2023-04-11T18:57:01.529Z,5.40
2023-04-11T18:59:28.814Z,7.30
2023-04-11T19:01:53.379Z,6.30
2023-04-11T19:04:18.618Z,5.35
2023-04-11T19:06:43.274Z,7.82
2023-04-11T19:09:07.319Z,7.35
2023-04-11T19:11:31.172Z,6.07
2023-04-11T19:13:55.152Z,7.50
2023-04-11T19:16:18.873Z,5.80
2023-04-11T19:18:42.425Z,5.72
2023-04-11T19:21:08.020Z,5.57
2023-04-11T19:23:31.631Z,5.10
2023-04-11T19:25:55.380Z,5.60
2023-04-11T19:28:19.144Z,6.47
2023-04-11T19:30:43.029Z,8.27
2023-04-11T19:33:06.735Z,6.85
2023-04-11T19:35:30.777Z,6.28
2023-04-11T19:37:55.859Z,7.25
2023-04-11T19:40:23.182Z,7.57
2023-04-11T19:42:47.055Z,9.90
2023-04-11T19:45:12.365Z,8.82
2023-04-11T19:47:36.086Z,9.93
2023-04-11T19:50:01.052Z,7.05
2023-04-11T19:52:25.536Z,8.85
2023-04-11T19:54:50.678Z,8.52
2023-04-11T19:57:14.360Z,9.55
2023-04-11T19:59:38.093Z,7.67
2023-04-11T20:02:02.169Z,8.23
2023-04-11T20:04:26.170Z,9.80
2023-04-11T20:06:50.971Z,5.17
2023-04-11T20:09:16.069Z,6.13
2023-04-11T20:11:43.655Z,7.75
2023-04-11T20:14:08.744Z,4.43
2023-04-11T20:16:32.831Z,8.43
2023-04-11T20:18:56.577Z,4.83
2023-04-11T20:21:21.220Z,5.53
2023-04-11T20:23:45.058Z,8.97
2023-04-11T20:26:09.169Z,7.37
2023-04-11T20:28:34.595Z,6.80
2023-04-11T20:30:59.414Z,6.10
2023-04-11T20:33:23.208Z,5.47
2023-04-11T20:35:46.818Z,9.63
2023-04-11T20:38:11.842Z,7.97
2023-04-11T20:40:37.038Z,12.33
2023-04-11T20:43:02.080Z,9.05
2023-04-11T20:45:28.233Z,9.13
2023-04-11T20:47:54.403Z,11.93
2023-04-11T20:50:19.621Z,9.77
2023-04-11T20:52:45.786Z,16.07
2023-04-11T20:55:11.043Z,8.73
2023-04-11T20:57:34.701Z,7.97
2023-04-11T20:59:58.505Z,12.20
2023-04-11T21:02:24.013Z,10.23
2023-04-11T21:04:48.717Z,8.10
2023-04-11T21:07:12.450Z,5.93
2023-04-11T21:09:36.406Z,6.67
2023-04-11T21:12:00.073Z,10.33
2023-04-11T21:14:24.179Z,8.63
2023-04-11T21:16:47.822Z,8.03
2023-04-11T21:19:13.428Z,8.17
2023-04-11T21:21:37.706Z,12.83
2023-04-11T21:24:01.671Z,6.87
2023-04-11T21:26:25.985Z,5.73
2023-04-11T21:28:49.682Z,8.03
2023-04-11T21:31:13.899Z,7.93
2023-04-11T21:33:37.548Z,7.10
2023-04-11T21:36:03.146Z,6.23
2023-04-11T21:38:26.824Z,10.63
2023-04-11T21:40:51.637Z,5.87
2023-04-11T21:43:15.441Z,5.67
2023-04-11T21:45:38.994Z,6.50
2023-04-11T21:48:02.678Z,10.23
2023-04-11T21:50:26.803Z,10.30
2023-04-11T21:52:51.990Z,4.73
2023-04-11T21:55:17.377Z,9.20
2023-04-11T21:57:42.459Z,5.40
2023-04-11T22:00:08.485Z,8.33
2023-04-11T22:02:38.773Z,8.63
2023-04-11T22:05:06.594Z,8.87
2023-04-11T22:07:39.154Z,8.70
2023-04-11T22:10:09.398Z,6.47
2023-04-11T22:12:32.968Z,9.03
2023-04-11T22:14:57.268Z,7.23
2023-04-11T22:17:20.989Z,8.33
2023-04-11T22:19:44.509Z,6.53
2023-04-11T22:22:08.292Z,5.13
2023-04-11T22:24:31.939Z,9.77
2023-04-11T22:26:58.279Z,8.87
2023-04-11T22:29:22.246Z,8.13
2023-04-11T22:31:47.714Z,11.27
2023-04-11T22:34:12.157Z,6.13
2023-04-11T22:36:36.892Z,8.97
2023-04-11T22:39:00.907Z,7.03
2023-04-11T22:41:25.751Z,7.00
2023-04-11T22:43:50.741Z,7.20
2023-04-11T22:46:14.407Z,5.43
2023-04-11T22:48:38.074Z,13.53
2023-04-11T22:51:01.686Z,7.23
2023-04-11T22:53:25.260Z,10.67
2023-04-11T22:55:49.057Z,9.00
2023-04-11T22:58:12.686Z,6.47
2023-04-11T23:00:38.529Z,13.20
2023-04-11T23:03:02.395Z,7.37
2023-04-11T23:05:26.121Z,7.40
2023-04-11T23:07:49.628Z,9.50
2023-04-11T23:10:15.895Z,9.27
2023-04-11T23:12:39.463Z,10.93
2023-04-11T23:15:04.190Z,6.73
2023-04-11T23:17:29.482Z,9.17
2023-04-11T23:19:53.141Z,8.70
2023-04-11T23:22:16.971Z,13.37
2023-04-11T23:24:40.897Z,10.07
2023-04-11T23:27:04.464Z,9.70
2023-04-11T23:29:28.223Z,12.30
2023-04-11T23:31:51.742Z,9.37
2023-04-11T23:34:17.258Z,7.83
2023-04-11T23:36:41.625Z,7.87
2023-04-11T23:39:05.791Z,7.80
2023-04-11T23:41:30.370Z,6.97
2023-04-11T23:43:53.951Z,6.33
2023-04-11T23:46:18.016Z,11.43
2023-04-11T23:48:42.462Z,8.30
2023-04-11T23:51:08.319Z,8.13
2023-04-11T23:53:32.720Z,7.00
2023-04-11T23:55:56.344Z,9.67
2023-04-11T23:58:19.945Z,6.17
